createdAt,value
2019-04-22T00:02:12.930Z,5.40
2019-04-22T00:04:55.103Z,4.60
2019-04-22T00:07:37.243Z,4.90
2019-04-22T00:10:13.453Z,4.80
2019-04-22T00:12:45.389Z,4.63
2019-04-22T00:15:10.179Z,6.67
2019-04-22T00:20:14.456Z,4.00
2019-04-22T00:22:46.476Z,7.03
2019-04-22T00:25:19.866Z,5.07
2019-04-22T00:33:07.827Z,4.13
2019-04-22T00:35:36.684Z,5.53
2019-04-22T00:38:17.416Z,4.10
2019-04-22T00:40:44.704Z,5.50
2019-04-22T00:43:13.662Z,4.27
2019-04-22T00:45:54.317Z,5.10
2019-04-22T00:48:25.473Z,5.60
2019-04-22T00:58:36.528Z,4.20
2019-04-22T01:01:15.356Z,4.73
2019-04-22T01:03:50.450Z,4.20
2019-04-22T01:06:18.340Z,5.20
2019-04-22T01:08:53.727Z,4.67
2019-04-22T01:11:17.253Z,6.63
2019-04-22T01:13:44.294Z,4.73
2019-04-22T01:16:20.355Z,4.47
2019-04-22T01:18:50.597Z,5.53
2019-04-22T01:23:47.688Z,6.03
2019-04-22T01:26:22.873Z,5.60
2019-04-22T01:28:50.078Z,5.10
2019-04-22T01:31:18.143Z,4.00
2019-04-22T01:33:49.769Z,4.37
2019-04-22T01:36:35.289Z,4.63
2019-04-22T01:39:09.353Z,6.40
2019-04-22T01:41:48.870Z,4.47
2019-04-22T01:46:50.864Z,5.10
2019-04-22T01:49:15.858Z,4.10
2019-04-22T01:52:01.858Z,5.67
2019-04-22T01:54:22.231Z,4.40
2019-04-22T01:59:15.677Z,5.87
2019-04-22T02:06:57.769Z,4.87
2019-04-22T02:09:31.365Z,5.63
2019-04-22T02:12:00.572Z,4.67
2019-04-22T02:14:33.081Z,5.10
2019-04-22T02:17:01.319Z,4.03
2019-04-22T02:19:38.675Z,4.67
2019-04-22T02:21:59.637Z,4.80
2019-04-22T02:24:39.925Z,4.37
2019-04-22T02:27:14.098Z,4.43
2019-04-22T02:32:21.277Z,4.67
2019-04-22T02:34:50.368Z,3.70
2019-04-22T02:39:52.832Z,3.60
2019-04-22T02:42:14.456Z,4.17
2019-04-22T02:44:46.593Z,4.57
2019-04-22T02:52:25.585Z,3.87
2019-04-22T02:55:02.757Z,5.17
2019-04-22T02:57:29.773Z,5.87
2019-04-22T03:00:18.381Z,4.17
2019-04-22T03:02:48.818Z,3.87
2019-04-22T03:05:07.504Z,5.23
2019-04-22T03:07:50.570Z,4.20
2019-04-22T03:12:29.387Z,3.93
2019-04-22T03:15:01.402Z,5.13
2019-04-22T03:20:17.832Z,5.40
2019-04-22T03:22:40.859Z,5.20
2019-04-22T03:25:45.514Z,6.67
2019-04-22T03:27:40.133Z,3.83
2019-04-22T03:30:42.006Z,4.43
2019-04-22T03:37:56.203Z,3.90
2019-04-22T03:40:30.374Z,4.43
2019-04-22T03:50:25.628Z,5.07
2019-04-22T03:53:05.857Z,4.77
2019-04-22T03:55:43.295Z,4.20
2019-04-22T04:00:35.967Z,5.10
2019-04-22T04:03:05.918Z,4.07
2019-04-22T04:10:40.109Z,3.83
2019-04-22T04:13:08.272Z,7.30
2019-04-22T04:20:44.748Z,3.97
2019-04-22T04:23:24.403Z,4.63
2019-04-22T04:30:48.713Z,5.03
2019-04-22T04:38:23.189Z,5.17
2019-04-22T04:43:33.336Z,5.60
2019-04-22T04:46:02.331Z,3.97
2019-04-22T04:48:36.966Z,5.17
2019-04-22T04:51:11.842Z,3.77
2019-04-22T04:53:29.187Z,4.63
2019-04-22T04:56:06.455Z,5.00
2019-04-22T04:58:47.611Z,4.80
2019-04-22T05:01:08.005Z,3.80
2019-04-22T05:06:12.593Z,3.30
2019-04-22T05:09:01.437Z,3.73
2019-04-22T05:13:49.667Z,3.90
2019-04-22T05:16:25.060Z,3.53
2019-04-22T05:18:48.178Z,3.83
2019-04-22T05:21:14.550Z,3.23
2019-04-22T05:23:48.950Z,5.43
2019-04-22T05:28:48.149Z,5.60
2019-04-22T05:31:15.715Z,3.17
2019-04-22T05:33:51.479Z,3.30
2019-04-22T05:36:25.898Z,2.87
2019-04-22T05:41:17.779Z,3.37
2019-04-22T05:43:49.836Z,3.30
2019-04-22T05:46:22.441Z,3.97
2019-04-22T05:48:55.392Z,3.23
2019-04-22T05:51:25.735Z,3.83
2019-04-22T05:53:59.009Z,3.20
2019-04-22T05:56:32.830Z,3.00
2019-04-22T05:58:58.261Z,3.53
2019-04-22T06:01:38.934Z,3.90
2019-04-22T06:09:12.545Z,3.67
2019-04-22T06:11:33.412Z,3.20
2019-04-22T06:14:12.311Z,5.40
2019-04-22T06:16:53.553Z,3.20
2019-04-22T06:22:09.622Z,3.60
2019-04-22T06:24:23.600Z,2.80
2019-04-22T06:29:22.184Z,3.00
2019-04-22T06:32:23.045Z,3.37
2019-04-22T06:34:30.141Z,4.57
2019-04-22T06:36:59.708Z,3.17
2019-04-22T06:39:34.242Z,3.93
2019-04-22T06:42:06.917Z,4.03
2019-04-22T06:44:29.777Z,2.93
2019-04-22T06:47:03.394Z,3.43
2019-04-22T06:49:35.598Z,3.00
2019-04-22T06:52:12.924Z,3.53
2019-04-22T06:54:32.952Z,3.50
2019-04-22T06:57:06.195Z,4.20
2019-04-22T06:59:37.768Z,3.50
2019-04-22T07:02:11.670Z,3.00
2019-04-22T07:04:41.861Z,2.57
2019-04-22T07:07:12.218Z,3.37
2019-04-22T07:12:20.449Z,3.07
2019-04-22T07:14:47.484Z,3.80
2019-04-22T07:17:15.403Z,3.73
2019-04-22T07:19:44.506Z,4.27
2019-04-22T07:27:22.145Z,3.23
2019-04-22T07:29:55.762Z,3.40
2019-04-22T07:32:48.352Z,2.80
2019-04-22T07:39:50.120Z,3.27
2019-04-22T07:42:32.894Z,5.07
2019-04-22T07:47:32.380Z,4.33
2019-04-22T07:50:05.162Z,3.87
2019-04-22T07:52:35.297Z,3.47
2019-04-22T07:55:02.145Z,2.87
2019-04-22T08:00:10.930Z,4.07
2019-04-22T08:02:44.285Z,4.07
2019-04-22T08:05:26.358Z,3.13
2019-04-22T08:07:46.756Z,2.93
2019-04-22T08:12:47.382Z,3.73
2019-04-22T08:15:12.463Z,2.80
2019-04-22T08:17:59.869Z,3.90
2019-04-22T08:22:53.624Z,2.60
2019-04-22T08:25:19.588Z,2.47
2019-04-22T08:27:50.827Z,2.70
2019-04-22T08:30:28.338Z,2.40
2019-04-22T08:32:53.129Z,2.07
2019-04-22T08:35:29.596Z,2.17
2019-04-22T08:40:37.462Z,1.97
2019-04-22T08:43:07.211Z,3.77
2019-04-22T08:45:38.772Z,2.37
2019-04-22T08:48:01.750Z,3.10
2019-04-22T08:50:38.891Z,1.93
2019-04-22T08:53:14.296Z,1.97
2019-04-22T08:55:46.462Z,6.40
2019-04-22T08:58:28.039Z,2.93
2019-04-22T09:00:52.900Z,1.73
2019-04-22T09:03:24.034Z,2.77
2019-04-22T09:05:55.344Z,2.70
2019-04-22T09:08:20.002Z,1.97
2019-04-22T09:10:48.838Z,2.23
2019-04-22T09:13:31.529Z,2.07
2019-04-22T09:15:49.564Z,1.83
2019-04-22T09:18:21.653Z,2.50
2019-04-22T09:20:58.829Z,2.83
2019-04-22T09:23:32.337Z,1.93
2019-04-22T09:25:56.968Z,1.97
2019-04-22T09:28:34.667Z,2.03
2019-04-22T09:31:01.348Z,2.27
2019-04-22T09:33:32.234Z,2.30
2019-04-22T09:36:12.879Z,2.30
2019-04-22T09:38:38.160Z,2.47
2019-04-22T09:41:10.120Z,2.93
2019-04-22T09:43:43.397Z,5.03
2019-04-22T09:46:06.260Z,2.40
2019-04-22T09:48:43.837Z,4.10
2019-04-22T09:51:12.042Z,2.30
2019-04-22T09:53:47.076Z,2.47
2019-04-22T09:56:20.800Z,2.57
2019-04-22T09:58:44.625Z,2.30
2019-04-22T10:01:24.593Z,2.47
2019-04-22T10:03:56.498Z,1.93
2019-04-22T10:06:35.567Z,3.00
2019-04-22T10:10:01.456Z,6.77
2019-04-22T10:11:26.846Z,2.97
2019-04-22T10:16:35.427Z,2.03
2019-04-22T10:19:00.999Z,2.00
2019-04-22T10:21:35.541Z,2.17
2019-04-22T10:26:33.424Z,3.27
2019-04-22T10:29:08.772Z,2.83
2019-04-22T10:31:38.213Z,3.10
2019-04-22T10:33:53.561Z,1.83
2019-04-22T10:36:10.711Z,2.30
2019-04-22T10:38:40.320Z,2.90
2019-04-22T10:41:10.471Z,2.60
2019-04-22T10:43:41.212Z,2.60
2019-04-22T10:46:12.145Z,2.20
2019-04-22T10:48:42.115Z,2.30
2019-04-22T10:51:12.714Z,3.37
2019-04-22T10:53:43.703Z,2.40
2019-04-22T10:56:14.740Z,2.00
2019-04-22T10:58:44.751Z,4.77
2019-04-22T11:01:15.732Z,3.13
2019-04-22T11:03:45.730Z,2.17
2019-04-22T11:06:15.393Z,9.80
2019-04-22T11:08:52.394Z,2.73
2019-04-22T11:11:30.185Z,2.93
2019-04-22T11:13:47.632Z,2.47
2019-04-22T11:16:17.502Z,3.57
2019-04-22T11:18:47.587Z,2.27
2019-04-22T11:21:17.940Z,2.00
2019-04-22T11:23:47.633Z,2.87
2019-04-22T11:26:17.753Z,2.70
2019-04-22T11:28:47.623Z,3.00
2019-04-22T11:31:18.550Z,2.73
2019-04-22T11:33:48.412Z,2.87
2019-04-22T11:36:18.146Z,2.40
2019-04-22T11:38:53.016Z,1.87
2019-04-22T11:41:19.505Z,2.80
2019-04-22T11:43:49.497Z,2.10
2019-04-22T11:46:19.291Z,1.97
2019-04-22T11:48:49.912Z,2.20
2019-04-22T11:51:20.040Z,2.10
2019-04-22T11:53:49.619Z,2.07
2019-04-22T11:56:19.209Z,2.57
2019-04-22T11:58:48.954Z,2.20
2019-04-22T12:01:19.180Z,2.00
2019-04-22T12:03:49.559Z,3.03
2019-04-22T12:06:19.832Z,2.03
2019-04-22T12:08:50.034Z,2.57
2019-04-22T12:11:20.645Z,2.93
2019-04-22T12:13:51.676Z,3.03
2019-04-22T12:16:21.468Z,3.37
2019-04-22T12:18:51.267Z,2.70
2019-04-22T12:21:21.431Z,3.27
2019-04-22T12:23:51.044Z,3.00
2019-04-22T12:26:22.910Z,3.80
2019-04-22T12:28:53.239Z,2.90
2019-04-22T12:31:23.789Z,2.00
2019-04-22T12:33:53.440Z,2.37
2019-04-22T12:36:24.442Z,2.03
2019-04-22T12:38:55.623Z,2.13
2019-04-22T12:41:25.923Z,2.43
2019-04-22T12:43:55.700Z,2.30
2019-04-22T12:46:26.080Z,1.77
2019-04-22T12:48:56.249Z,3.00
2019-04-22T12:51:27.114Z,2.83
2019-04-22T12:53:57.268Z,2.50
2019-04-22T12:56:27.814Z,2.50
2019-04-22T12:58:57.670Z,2.23
2019-04-22T13:01:27.202Z,2.17
2019-04-22T13:04:03.173Z,2.00
2019-04-22T13:06:30.034Z,2.13
2019-04-22T13:09:00.220Z,2.60
2019-04-22T13:11:32.803Z,2.00
2019-04-22T13:14:01.299Z,1.50
2019-04-22T13:16:31.280Z,2.07
2019-04-22T13:19:05.637Z,2.23
2019-04-22T13:21:33.068Z,2.37
2019-04-22T13:24:02.824Z,1.93
2019-04-22T13:26:33.735Z,1.70
2019-04-22T13:29:03.383Z,1.93
2019-04-22T13:31:33.142Z,2.10
2019-04-22T13:34:04.057Z,1.70
2019-04-22T13:36:34.638Z,1.83
2019-04-22T13:39:08.942Z,2.73
2019-04-22T13:41:46.140Z,2.30
2019-04-22T13:44:09.941Z,2.07
2019-04-22T13:46:59.119Z,2.47
2019-04-22T13:49:47.792Z,2.10
2019-04-22T13:52:20.690Z,2.43
2019-04-22T13:57:07.967Z,1.87
2019-04-22T13:59:22.991Z,1.63
2019-04-22T14:01:56.485Z,1.80
2019-04-22T14:04:30.505Z,1.70
2019-04-22T14:07:00.879Z,1.60
2019-04-22T14:09:30.639Z,2.13
2019-04-22T14:12:05.194Z,2.10
2019-04-22T14:14:31.460Z,1.80
2019-04-22T14:17:01.018Z,1.77
2019-04-22T14:19:32.045Z,2.27
2019-04-22T14:22:02.010Z,1.60
2019-04-22T14:24:31.684Z,2.43
2019-04-22T14:27:17.481Z,1.70
2019-04-22T14:29:33.556Z,1.83
2019-04-22T14:32:12.781Z,3.73
2019-04-22T14:34:34.525Z,2.00
2019-04-22T14:37:05.495Z,1.60
2019-04-22T14:39:35.801Z,1.50
2019-04-22T14:44:23.281Z,2.13
2019-04-22T14:47:34.706Z,1.70
2019-04-22T14:49:58.965Z,2.17
2019-04-22T14:52:33.148Z,1.80
2019-04-22T14:54:57.755Z,1.70
2019-04-22T14:57:19.307Z,3.47
2019-04-22T14:59:50.087Z,1.80
2019-04-22T15:02:19.782Z,1.40
2019-04-22T15:04:50.093Z,2.10
2019-04-22T15:07:20.990Z,1.97
2019-04-22T15:09:52.118Z,1.70
2019-04-22T15:12:31.208Z,1.50
2019-04-22T15:14:53.474Z,1.70
2019-04-22T15:17:34.910Z,2.10
2019-04-22T15:20:08.174Z,2.43
2019-04-22T15:22:38.842Z,1.93
2019-04-22T15:25:08.581Z,1.50
2019-04-22T15:27:39.446Z,1.87
2019-04-22T15:30:09.744Z,1.80
2019-04-22T15:32:41.154Z,1.77
2019-04-22T15:35:11.468Z,3.10
2019-04-22T15:37:41.421Z,1.73
2019-04-22T15:40:13.066Z,2.10
2019-04-22T15:42:43.749Z,1.60
2019-04-22T15:45:15.161Z,1.70
2019-04-22T15:47:46.168Z,1.70
2019-04-22T15:50:16.365Z,1.43
2019-04-22T15:52:51.164Z,1.70
2019-04-22T15:55:18.593Z,1.63
2019-04-22T15:57:49.718Z,2.37
2019-04-22T16:00:31.944Z,1.47
2019-04-22T16:02:52.020Z,1.77
2019-04-22T16:05:22.496Z,2.20
2019-04-22T16:07:52.969Z,1.43
2019-04-22T16:10:23.955Z,2.67
2019-04-22T16:13:03.274Z,1.50
2019-04-22T16:15:24.811Z,2.40
2019-04-22T16:17:55.020Z,1.60
2019-04-22T16:20:25.879Z,2.27
2019-04-22T16:23:15.181Z,1.50
2019-04-22T16:25:51.282Z,2.03
2019-04-22T16:28:21.603Z,1.60
2019-04-22T16:30:51.299Z,1.63
2019-04-22T16:33:21.671Z,1.53
2019-04-22T16:35:52.922Z,1.47
2019-04-22T16:38:22.769Z,1.67
2019-04-22T16:40:52.749Z,1.73
2019-04-22T16:43:22.496Z,1.67
2019-04-22T16:45:53.652Z,1.60
2019-04-22T16:48:23.403Z,1.50
2019-04-22T16:50:54.562Z,1.70
2019-04-22T16:53:25.269Z,1.70
2019-04-22T16:55:55.181Z,2.57
2019-04-22T16:58:25.130Z,3.37
2019-04-22T17:00:54.875Z,3.17
2019-04-22T17:03:36.530Z,1.57
2019-04-22T17:06:07.724Z,1.77
2019-04-22T17:08:37.230Z,1.50
2019-04-22T17:11:07.505Z,1.87
2019-04-22T17:13:38.527Z,1.60
2019-04-22T17:16:09.863Z,1.60
2019-04-22T17:18:39.617Z,1.60
2019-04-22T17:21:11.012Z,1.50
2019-04-22T17:23:41.365Z,1.70
2019-04-22T17:26:12.442Z,1.63
2019-04-22T17:28:43.718Z,1.67
2019-04-22T17:31:13.534Z,2.13
2019-04-22T17:33:44.568Z,1.43
2019-04-22T17:36:16.218Z,2.57
2019-04-22T17:38:56.446Z,2.17
2019-04-22T17:41:33.955Z,1.53
2019-04-22T17:44:15.356Z,1.60
2019-04-22T17:46:40.630Z,2.27
2019-04-22T17:49:37.239Z,1.27
2019-04-22T17:52:24.759Z,1.83
2019-04-22T17:54:50.560Z,1.30
2019-04-22T17:57:24.125Z,2.20
2019-04-22T18:00:06.985Z,2.07
2019-04-22T18:02:24.970Z,1.87
2019-04-22T18:04:45.732Z,1.30
2019-04-22T18:07:44.474Z,1.93
2019-04-22T18:10:24.325Z,1.30
2019-04-22T18:12:40.064Z,2.70
2019-04-22T18:15:07.142Z,1.40
2019-04-22T18:17:35.527Z,1.37
2019-04-22T18:19:59.025Z,1.67
2019-04-22T18:22:24.512Z,1.97
2019-04-22T18:25:02.226Z,1.80
2019-04-22T18:30:05.149Z,1.60
2019-04-22T18:32:42.508Z,2.43
2019-04-22T18:35:11.508Z,1.60
2019-04-22T18:37:42.477Z,2.07
2019-04-22T18:40:15.046Z,1.93
2019-04-22T18:42:52.558Z,1.43
2019-04-22T18:45:35.568Z,1.40
2019-04-22T18:47:44.279Z,2.67
2019-04-22T18:50:26.378Z,1.63
2019-04-22T18:53:03.698Z,2.17
2019-04-22T18:55:31.991Z,1.30
2019-04-22T18:58:09.757Z,2.00
2019-04-22T19:00:41.732Z,2.07
2019-04-22T19:03:16.429Z,1.77
2019-04-22T19:06:09.553Z,1.23
2019-04-22T19:08:50.521Z,1.83
2019-04-22T19:11:12.463Z,1.50
2019-04-22T19:16:25.794Z,1.53
2019-04-22T19:19:17.208Z,1.77
2019-04-22T19:21:12.069Z,1.83
2019-04-22T19:23:45.239Z,1.93
2019-04-22T19:26:25.517Z,1.70
2019-04-22T19:28:45.196Z,1.30
2019-04-22T19:31:21.936Z,2.27
2019-04-22T19:33:56.356Z,1.73
2019-04-22T19:36:20.964Z,1.40
2019-04-22T19:38:49.808Z,1.43
2019-04-22T19:41:24.140Z,1.27
2019-04-22T19:44:00.453Z,1.40
2019-04-22T19:46:22.122Z,1.53
2019-04-22T19:49:06.970Z,1.43
2019-04-22T19:51:43.076Z,1.90
2019-04-22T19:53:56.253Z,1.37
2019-04-22T19:56:22.937Z,1.37
2019-04-22T19:58:56.293Z,1.30
2019-04-22T20:01:36.444Z,1.30
2019-04-22T20:04:25.092Z,1.17
2019-04-22T20:06:47.823Z,1.83
2019-04-22T20:09:24.445Z,1.83
2019-04-22T20:11:49.622Z,1.67
2019-04-22T20:14:21.892Z,1.80
2019-04-22T20:16:49.025Z,1.53
2019-04-22T20:19:31.902Z,1.87
2019-04-22T20:22:01.650Z,1.97
2019-04-22T20:24:16.841Z,1.73
2019-04-22T20:27:05.639Z,1.63
2019-04-22T20:29:40.289Z,1.50
2019-04-22T20:32:05.398Z,1.77
2019-04-22T20:34:39.492Z,2.90
2019-04-22T20:37:11.300Z,3.37
2019-04-22T20:39:45.667Z,1.93
2019-04-22T20:42:23.122Z,2.40
2019-04-22T20:44:46.021Z,1.73
2019-04-22T20:47:12.239Z,2.80
2019-04-22T20:49:41.543Z,2.60
2019-04-22T20:52:22.347Z,1.50
2019-04-22T20:54:46.213Z,1.80
2019-04-22T20:57:15.369Z,1.47
2019-04-22T20:59:48.058Z,1.90
2019-04-22T21:02:16.428Z,1.20
2019-04-22T21:04:41.626Z,1.70
2019-04-22T21:07:16.764Z,1.83
2019-04-22T21:09:49.185Z,1.60
2019-04-22T21:12:17.668Z,2.30
2019-04-22T21:15:00.208Z,1.23
2019-04-22T21:17:33.620Z,1.20
2019-04-22T21:20:00.817Z,2.57
2019-04-22T21:22:32.437Z,3.23
2019-04-22T21:24:59.258Z,1.77
2019-04-22T21:27:34.392Z,2.37
2019-04-22T21:29:52.275Z,1.77
2019-04-22T21:32:34.521Z,2.27
2019-04-22T21:35:11.778Z,1.87
2019-04-22T21:37:43.163Z,1.60
2019-04-22T21:40:10.733Z,2.83
2019-04-22T21:42:50.137Z,1.60
2019-04-22T21:45:12.256Z,1.77
2019-04-22T21:47:49.961Z,1.50
2019-04-22T21:52:50.902Z,3.37
2019-04-22T21:55:16.418Z,1.33
2019-04-22T21:57:57.727Z,2.03
2019-04-22T22:00:32.780Z,1.97
2019-04-22T22:03:03.172Z,2.27
2019-04-22T22:05:22.165Z,1.97
2019-04-22T22:07:50.861Z,2.27
2019-04-22T22:10:27.174Z,1.20
2019-04-22T22:13:15.651Z,1.50
2019-04-22T22:15:52.079Z,1.73
2019-04-22T22:18:12.259Z,2.00
2019-04-22T22:21:13.167Z,1.30
2019-04-22T22:25:55.797Z,1.10
2019-04-22T22:28:46.947Z,2.07
2019-04-22T22:31:05.013Z,2.27
2019-04-22T22:33:28.299Z,4.30
2019-04-22T22:35:58.449Z,0.93
2019-04-22T22:38:26.987Z,1.13
2019-04-22T22:40:43.917Z,1.30
2019-04-22T22:43:22.646Z,1.90
2019-04-22T22:45:55.265Z,1.17
2019-04-22T22:48:39.878Z,1.27
2019-04-22T22:51:05.309Z,2.40
2019-04-22T22:53:46.410Z,1.67
2019-04-22T22:56:13.593Z,1.03
2019-04-22T22:58:40.771Z,1.47
2019-04-22T23:01:10.369Z,1.27
2019-04-22T23:03:51.131Z,3.20
2019-04-22T23:06:20.767Z,1.20
2019-04-22T23:08:54.026Z,1.07
2019-04-22T23:11:21.065Z,1.10
2019-04-22T23:13:49.877Z,1.33
2019-04-22T23:16:12.653Z,1.30
2019-04-22T23:18:34.091Z,1.33
2019-04-22T23:21:08.227Z,2.00
2019-04-22T23:23:51.314Z,1.70
2019-04-22T23:26:35.923Z,1.23
2019-04-22T23:29:07.170Z,1.80
2019-04-22T23:31:39.871Z,1.77
2019-04-22T23:34:15.747Z,0.87
2019-04-22T23:36:57.541Z,1.07
2019-04-22T23:39:35.615Z,1.10
2019-04-22T23:42:06.439Z,1.10
2019-04-22T23:44:31.941Z,1.07
2019-04-22T23:47:06.181Z,1.03
2019-04-22T23:49:35.163Z,2.17
2019-04-22T23:52:21.078Z,3.30
2019-04-22T23:54:50.892Z,1.17
2019-04-22T23:57:23.804Z,1.97
2019-04-22T23:59:57.395Z,1.17
